Terminal Aerodrome Forecast
Issued by NWS Memphis, TN

Home | Current Version | Previous Version | Text Only | Print | Product List | Glossary On
Versions: 1 2 3 4 5 6 7 8 9 10 11 12 13
000
FTUS44 KMEG 142326
TAFMKL
TAF
KMKL 142326Z 1500/1524 36009KT P6SM BKN040
     FM150100 VRB03KT P6SM BKN035
     FM151500 29008KT P6SM SCT040=

USA.gov is the U.S. government's official web portal to all federal, state and local government web resources and services.